createdAt,value
2018-04-22T00:02:23.432Z,99.90
2018-04-22T00:04:50.851Z,99.90
2018-04-22T00:07:18.272Z,99.90
2018-04-22T00:09:45.679Z,99.90
2018-04-22T00:12:13.854Z,99.90
2018-04-22T00:14:42.130Z,99.90
2018-04-22T00:17:09.550Z,99.90
2018-04-22T00:19:36.971Z,99.90
2018-04-22T00:22:05.151Z,99.90
2018-04-22T00:24:32.627Z,99.90
2018-04-22T00:27:00.038Z,99.90
2018-04-22T00:29:27.468Z,99.90
2018-04-22T00:31:55.642Z,99.90
2018-04-22T00:34:23.051Z,99.90
2018-04-22T00:36:51.231Z,99.90
2018-04-22T00:39:19.432Z,99.90
2018-04-22T00:41:46.827Z,99.90
2018-04-22T00:44:14.998Z,99.90
2018-04-22T00:46:42.443Z,99.90
2018-04-22T00:49:09.866Z,99.90
2018-04-22T00:51:38.043Z,99.90
2018-04-22T00:54:17.387Z,99.90
2018-04-22T00:56:44.795Z,99.90
2018-04-22T00:59:12.198Z,99.90
2018-04-22T01:01:39.609Z,99.90
2018-04-22T01:04:07.022Z,99.90
2018-04-22T01:06:34.486Z,99.90
2018-04-22T01:09:01.899Z,99.90
2018-04-22T01:11:30.096Z,99.90
2018-04-22T01:13:57.499Z,99.90
2018-04-22T01:16:25.682Z,99.90
2018-04-22T01:18:53.111Z,99.90
2018-04-22T01:21:20.586Z,99.90
2018-04-22T01:23:47.970Z,99.90
2018-04-22T01:26:16.170Z,99.90
2018-04-22T01:28:43.577Z,99.90
2018-04-22T01:31:11.772Z,99.90
2018-04-22T01:33:39.184Z,99.90
2018-04-22T01:36:07.358Z,99.90
2018-04-22T01:38:34.768Z,99.90
2018-04-22T01:41:02.195Z,99.90
2018-04-22T01:43:29.609Z,99.90
2018-04-22T01:45:57.022Z,99.90
2018-04-22T01:48:24.484Z,99.90
2018-04-22T01:50:51.890Z,99.90
2018-04-22T01:53:20.069Z,99.90
2018-04-22T01:55:47.493Z,99.90
2018-04-22T01:58:15.693Z,99.90
2018-04-22T02:00:43.123Z,99.90
2018-04-22T02:03:10.574Z,99.90
2018-04-22T02:05:38.015Z,99.90
2018-04-22T02:08:05.463Z,99.90
2018-04-22T02:10:32.898Z,99.90
2018-04-22T02:13:00.317Z,99.90
2018-04-22T02:15:27.725Z,99.90
2018-04-22T02:17:55.906Z,99.90
2018-04-22T02:20:23.318Z,99.90
2018-04-22T02:22:50.830Z,99.90
2018-04-22T02:25:18.475Z,99.90
2018-04-22T02:27:45.887Z,99.90
2018-04-22T02:30:13.286Z,99.90
2018-04-22T02:32:40.711Z,99.90
2018-04-22T02:35:08.125Z,99.90
2018-04-22T02:37:35.553Z,99.90
2018-04-22T02:40:03.012Z,99.90
2018-04-22T02:42:30.423Z,99.90
2018-04-22T02:44:57.845Z,99.90
2018-04-22T02:47:25.246Z,99.90
2018-04-22T02:49:52.663Z,99.90
2018-04-22T02:52:20.112Z,99.90
2018-04-22T02:54:47.519Z,99.90
2018-04-22T02:57:15.702Z,99.90
2018-04-22T02:59:43.115Z,99.90
2018-04-22T03:02:11.307Z,99.90
2018-04-22T03:04:38.710Z,99.90
2018-04-22T03:07:06.891Z,99.90
2018-04-22T03:09:34.294Z,99.90
2018-04-22T03:12:01.710Z,99.90
2018-04-22T03:14:29.133Z,99.90
2018-04-22T03:16:56.560Z,99.90
2018-04-22T03:19:24.023Z,99.90
2018-04-22T03:21:51.566Z,99.90
2018-04-22T03:24:19.010Z,99.90
2018-04-22T03:26:46.443Z,99.90
2018-04-22T03:29:13.851Z,99.90
2018-04-22T03:31:42.029Z,99.90
2018-04-22T03:34:09.438Z,99.90
2018-04-22T03:36:37.627Z,99.90
2018-04-22T03:39:05.911Z,99.90
2018-04-22T03:41:33.327Z,99.90
2018-04-22T03:44:00.799Z,99.90
2018-04-22T03:46:28.259Z,99.90
2018-04-22T03:48:55.675Z,99.90
2018-04-22T03:51:23.078Z,99.90
2018-04-22T03:53:51.269Z,99.90
2018-04-22T03:56:18.672Z,99.90
2018-04-22T03:58:46.852Z,99.90
2018-04-22T04:01:14.278Z,99.90
2018-04-22T04:03:42.543Z,99.90
2018-04-22T04:06:09.976Z,99.90
2018-04-22T04:08:37.384Z,99.90
2018-04-22T04:11:04.815Z,99.90
2018-04-22T04:13:32.206Z,99.90
2018-04-22T04:16:00.387Z,99.90
2018-04-22T04:18:57.562Z,99.90
2018-04-22T04:21:36.793Z,99.90
2018-04-22T04:27:41.566Z,99.90
2018-04-22T04:30:08.974Z,99.90
2018-04-22T04:32:37.146Z,99.90
2018-04-22T04:35:04.610Z,99.90
2018-04-22T04:37:32.020Z,99.90
2018-04-22T04:40:00.191Z,99.90
2018-04-22T04:42:27.602Z,99.90
2018-04-22T04:44:55.023Z,99.90
2018-04-22T04:47:22.445Z,99.90
2018-04-22T04:49:49.858Z,99.90
2018-04-22T04:52:17.267Z,99.90
2018-04-22T04:54:44.679Z,99.90
2018-04-22T04:57:12.087Z,99.90
2018-04-22T04:59:39.499Z,99.90
2018-04-22T05:02:07.666Z,99.90
2018-04-22T05:04:35.881Z,99.90
2018-04-22T05:07:03.299Z,99.90
2018-04-22T05:09:30.722Z,99.90
2018-04-22T05:11:58.140Z,99.90
2018-04-22T05:14:25.546Z,99.90
2018-04-22T05:16:52.959Z,99.90
2018-04-22T05:19:20.379Z,99.90
2018-04-22T05:21:48.552Z,99.90
2018-04-22T05:24:16.014Z,99.90
2018-04-22T05:26:43.376Z,99.90
2018-04-22T05:29:10.794Z,99.90
2018-04-22T05:31:38.267Z,99.90
2018-04-22T05:34:05.688Z,99.90
2018-04-22T05:36:33.180Z,99.90
2018-04-22T05:39:00.542Z,99.90
2018-04-22T05:41:28.758Z,99.90
2018-04-22T05:43:56.154Z,99.90
2018-04-22T05:46:24.330Z,99.90
2018-04-22T05:48:51.787Z,99.90
2018-04-22T05:51:19.211Z,99.90
2018-04-22T05:53:46.631Z,99.90
2018-04-22T05:56:14.831Z,99.90
2018-04-22T05:58:42.234Z,99.90
2018-04-22T06:01:10.413Z,99.90
2018-04-22T06:03:37.870Z,99.90
2018-04-22T06:06:05.311Z,99.90
2018-04-22T06:08:32.760Z,99.90
2018-04-22T06:11:00.207Z,99.90
2018-04-22T06:13:27.626Z,99.90
2018-04-22T06:15:55.031Z,99.90
2018-04-22T06:18:23.211Z,99.90
2018-04-22T06:20:51.390Z,99.90
2018-04-22T06:23:18.803Z,99.90
2018-04-22T06:25:46.998Z,99.90
2018-04-22T06:28:14.429Z,99.90
2018-04-22T06:30:42.591Z,99.90
2018-04-22T06:33:09.998Z,99.90
2018-04-22T06:35:38.197Z,99.90
2018-04-22T06:38:05.603Z,99.90
2018-04-22T06:40:33.795Z,99.90
2018-04-22T06:43:01.247Z,99.90
2018-04-22T06:45:28.663Z,99.90
2018-04-22T06:47:56.142Z,99.90
2018-04-22T06:50:23.565Z,99.90
2018-04-22T06:52:51.016Z,99.90
2018-04-22T06:55:18.525Z,99.90
2018-04-22T06:57:46.707Z,99.90
2018-04-22T07:00:14.151Z,99.90
2018-04-22T07:02:41.563Z,99.90
2018-04-22T07:05:09.759Z,99.90
2018-04-22T07:07:37.171Z,99.90
2018-04-22T07:10:04.571Z,99.90
2018-04-22T07:12:32.074Z,99.90
2018-04-22T07:14:59.478Z,99.90
2018-04-22T07:17:27.666Z,99.10
2018-04-22T07:19:55.127Z,99.10
2018-04-22T07:22:22.545Z,98.40
2018-04-22T07:24:49.942Z,98.80
2018-04-22T07:27:17.356Z,97.50
2018-04-22T07:29:44.783Z,97.30
2018-04-22T07:32:12.213Z,97.20
2018-04-22T07:34:39.603Z,95.20
2018-04-22T07:37:07.006Z,96.30
2018-04-22T07:39:34.411Z,94.90
2018-04-22T07:42:02.600Z,94.20
2018-04-22T07:44:30.019Z,94.20
2018-04-22T07:46:58.201Z,93.80
2018-04-22T07:49:26.355Z,93.80
2018-04-22T07:51:53.811Z,93.80
2018-04-22T07:54:21.214Z,93.10
2018-04-22T07:56:49.390Z,92.30
2018-04-22T07:59:17.555Z,91.70
2018-04-22T08:01:44.955Z,91.70
2018-04-22T08:04:12.450Z,91.30
2018-04-22T08:06:39.855Z,91.70
2018-04-22T08:09:08.031Z,91.40
2018-04-22T08:11:36.207Z,90.10
2018-04-22T08:14:03.606Z,90.10
2018-04-22T08:16:31.101Z,90.00
2018-04-22T08:18:58.742Z,88.00
2018-04-22T08:21:26.146Z,86.90
2018-04-22T08:23:54.359Z,87.70
2018-04-22T08:26:21.774Z,87.60
2018-04-22T08:28:49.231Z,88.30
2018-04-22T08:31:16.638Z,86.60
2018-04-22T08:33:44.814Z,83.20
2018-04-22T08:36:12.272Z,83.10
2018-04-22T08:38:39.679Z,83.00
2018-04-22T08:41:07.851Z,82.20
2018-04-22T08:43:35.254Z,82.00
2018-04-22T08:46:02.755Z,82.90
2018-04-22T08:48:30.166Z,84.00
2018-04-22T08:50:58.337Z,86.80
2018-04-22T08:53:25.738Z,86.80
2018-04-22T08:55:53.174Z,84.20
2018-04-22T08:58:20.542Z,84.80
2018-04-22T09:00:48.701Z,83.10
2018-04-22T09:03:17.003Z,81.40
2018-04-22T09:05:44.397Z,81.30
2018-04-22T09:08:12.568Z,85.40
2018-04-22T09:10:40.739Z,83.50
2018-04-22T09:13:08.143Z,83.40
2018-04-22T09:15:35.647Z,82.50
2018-04-22T09:18:03.060Z,80.70
2018-04-22T09:20:30.532Z,81.40
2018-04-22T09:22:57.964Z,81.50
2018-04-22T09:25:25.374Z,82.00
2018-04-22T09:27:53.599Z,81.20
2018-04-22T09:30:20.946Z,81.10
2018-04-22T09:32:48.354Z,80.10
2018-04-22T09:35:15.771Z,77.70
2018-04-22T09:37:43.253Z,77.90
2018-04-22T09:40:10.691Z,79.00
2018-04-22T09:42:38.095Z,78.80
2018-04-22T09:45:06.267Z,77.40
2018-04-22T09:47:33.674Z,77.40
2018-04-22T09:50:01.088Z,76.40
2018-04-22T09:52:28.503Z,77.30
2018-04-22T09:54:55.903Z,77.10
2018-04-22T09:57:23.407Z,75.80
2018-04-22T09:59:50.818Z,74.50
2018-04-22T10:02:23.976Z,73.30
2018-04-22T10:04:52.183Z,76.20
2018-04-22T10:07:20.340Z,77.70
2018-04-22T10:09:47.738Z,77.60
2018-04-22T10:12:15.935Z,74.10
2018-04-22T10:14:43.334Z,74.00
2018-04-22T10:17:11.507Z,72.10
2018-04-22T10:19:38.919Z,72.10
2018-04-22T10:22:06.331Z,73.50
2018-04-22T10:24:33.754Z,73.80
2018-04-22T10:27:01.158Z,75.00
2018-04-22T10:29:29.335Z,73.20
2018-04-22T10:31:57.507Z,73.70
2018-04-22T10:34:24.913Z,73.70
2018-04-22T10:36:52.329Z,73.30
2018-04-22T10:39:19.742Z,72.90
2018-04-22T10:41:47.156Z,74.10
2018-04-22T10:44:15.347Z,71.10
2018-04-22T10:46:42.839Z,71.10
2018-04-22T10:49:10.199Z,73.50
2018-04-22T10:51:38.375Z,72.70
2018-04-22T10:54:05.823Z,72.70
2018-04-22T10:56:33.223Z,71.60
2018-04-22T10:59:00.722Z,68.20
2018-04-22T11:01:28.260Z,69.90
2018-04-22T11:03:55.671Z,67.50
2018-04-22T11:06:23.867Z,66.50
2018-04-22T11:08:51.268Z,66.30
2018-04-22T11:11:19.463Z,59.60
2018-04-22T11:13:46.899Z,59.60
2018-04-22T11:16:14.303Z,59.80
2018-04-22T11:18:42.475Z,59.70
2018-04-22T11:21:09.965Z,59.70
2018-04-22T11:23:37.390Z,58.10
2018-04-22T11:26:04.796Z,60.40
2018-04-22T11:28:32.962Z,55.80
2018-04-22T11:31:00.473Z,55.40
2018-04-22T11:33:27.871Z,53.40
2018-04-22T11:35:56.039Z,52.50
2018-04-22T11:38:24.210Z,53.00
2018-04-22T11:40:51.694Z,52.90
2018-04-22T11:43:19.096Z,57.50
2018-04-22T11:45:46.507Z,51.40
2018-04-22T11:48:14.011Z,46.30
2018-04-22T11:50:41.414Z,45.60
2018-04-22T11:53:08.878Z,42.60
2018-04-22T11:55:36.327Z,42.10
2018-04-22T11:58:03.731Z,43.70
2018-04-22T12:00:31.922Z,39.10
2018-04-22T12:02:59.399Z,39.10
2018-04-22T12:05:26.799Z,39.50
2018-04-22T12:07:54.213Z,37.70
2018-04-22T12:10:21.703Z,38.20
2018-04-22T12:12:49.110Z,38.60
2018-04-22T12:15:16.519Z,39.60
2018-04-22T12:17:43.926Z,38.20
2018-04-22T12:20:11.323Z,37.50
2018-04-22T12:22:39.503Z,38.20
2018-04-22T12:25:06.935Z,38.20
2018-04-22T12:27:34.338Z,38.80
2018-04-22T12:30:01.851Z,37.30
2018-04-22T12:32:29.251Z,36.70
2018-04-22T12:34:57.427Z,37.90
2018-04-22T12:37:24.907Z,37.70
2018-04-22T12:39:52.306Z,34.30
2018-04-22T12:42:20.479Z,33.50
2018-04-22T12:44:47.930Z,33.40
2018-04-22T12:47:15.370Z,33.00
2018-04-22T12:49:42.775Z,34.00
2018-04-22T12:52:10.951Z,31.80
2018-04-22T12:54:38.414Z,31.70
2018-04-22T12:57:05.854Z,33.90
2018-04-22T12:59:33.262Z,34.00
2018-04-22T13:02:01.439Z,31.60
2018-04-22T13:04:28.855Z,31.60
2018-04-22T13:06:57.023Z,30.90
2018-04-22T13:09:25.195Z,31.50
2018-04-22T13:11:52.594Z,31.40
2018-04-22T13:14:19.999Z,31.10
2018-04-22T13:16:47.448Z,31.70
2018-04-22T13:19:14.883Z,30.70
2018-04-22T13:21:42.298Z,31.20
2018-04-22T13:24:09.767Z,32.20
2018-04-22T13:26:37.166Z,33.00
2018-04-22T13:29:05.442Z,32.70
2018-04-22T13:31:32.843Z,32.70
2018-04-22T13:34:00.343Z,31.10
2018-04-22T13:36:27.803Z,31.80
2018-04-22T13:38:55.251Z,31.40
2018-04-22T13:41:22.675Z,31.00
2018-04-22T13:43:50.129Z,30.60
2018-04-22T13:46:17.517Z,31.00
2018-04-22T13:48:45.692Z,30.90
2018-04-22T13:51:13.103Z,30.90
2018-04-22T13:53:40.520Z,31.70
2018-04-22T13:56:07.931Z,31.80
2018-04-22T13:58:35.374Z,32.90
2018-04-22T14:01:02.778Z,32.20
2018-04-22T14:03:31.406Z,31.20
2018-04-22T14:05:58.804Z,31.70
2018-04-22T14:08:26.971Z,32.20
2018-04-22T14:10:54.379Z,32.20
2018-04-22T14:13:21.871Z,32.50
2018-04-22T14:15:49.270Z,31.70
2018-04-22T14:18:17.446Z,31.50
2018-04-22T14:20:45.610Z,30.90
2018-04-22T14:23:13.023Z,30.90
2018-04-22T14:25:41.198Z,31.90
2018-04-22T14:28:09.366Z,32.10
2018-04-22T14:30:37.534Z,30.60
2018-04-22T14:33:05.717Z,31.60
2018-04-22T14:35:33.166Z,31.60
2018-04-22T14:38:00.570Z,33.90
2018-04-22T14:40:28.743Z,33.10
2018-04-22T14:42:57.967Z,32.50
2018-04-22T14:45:37.068Z,32.50
2018-04-22T14:48:04.510Z,32.80
2018-04-22T14:50:31.922Z,32.10
2018-04-22T14:53:00.107Z,33.50
2018-04-22T14:55:27.527Z,32.80
2018-04-22T14:57:54.994Z,32.60
2018-04-22T15:00:22.398Z,32.20
2018-04-22T15:02:50.598Z,33.70
2018-04-22T15:05:18.084Z,33.70
2018-04-22T15:07:45.414Z,32.00
2018-04-22T15:10:12.902Z,32.60
2018-04-22T15:12:40.376Z,31.20
2018-04-22T15:15:07.811Z,31.70
2018-04-22T15:17:35.210Z,30.10
2018-04-22T15:20:03.380Z,30.40
2018-04-22T15:22:30.830Z,30.30
2018-04-22T15:24:58.274Z,29.00
2018-04-22T15:27:25.655Z,29.40
2018-04-22T15:29:53.056Z,28.80
2018-04-22T15:32:20.511Z,29.10
2018-04-22T15:34:47.910Z,29.90
2018-04-22T15:37:16.093Z,29.70
2018-04-22T15:39:43.545Z,29.60
2018-04-22T15:42:10.990Z,30.40
2018-04-22T15:44:38.398Z,31.50
2018-04-22T15:47:06.570Z,30.20
2018-04-22T15:49:34.030Z,30.10
2018-04-22T15:52:01.430Z,30.90
2018-04-22T15:54:29.643Z,30.80
2018-04-22T15:56:57.053Z,30.60
2018-04-22T15:59:24.455Z,28.60
2018-04-22T16:01:51.867Z,28.60
2018-04-22T16:04:19.259Z,28.90
2018-04-22T16:06:47.435Z,28.10
2018-04-22T16:09:14.847Z,28.20
2018-04-22T16:11:42.276Z,28.20
2018-04-22T16:14:10.446Z,29.80
2018-04-22T16:16:37.852Z,29.70
2018-04-22T16:19:05.247Z,29.70
2018-04-22T16:21:32.655Z,30.00
2018-04-22T16:24:00.073Z,31.10
2018-04-22T16:26:27.482Z,28.80
2018-04-22T16:28:55.666Z,29.00
2018-04-22T16:31:23.075Z,29.00
2018-04-22T16:33:51.244Z,28.70
2018-04-22T16:36:18.656Z,28.70
2018-04-22T16:38:46.826Z,31.30
2018-04-22T16:41:14.995Z,30.40
2018-04-22T16:43:42.403Z,30.30
2018-04-22T16:46:09.804Z,29.90
2018-04-22T16:48:37.222Z,30.70
2018-04-22T16:51:04.635Z,30.40
2018-04-22T16:53:32.825Z,31.20
2018-04-22T16:56:00.234Z,31.10
2018-04-22T16:58:27.647Z,33.00
2018-04-22T17:00:55.056Z,30.40
2018-04-22T17:03:22.454Z,30.60
2018-04-22T17:05:49.867Z,32.10
2018-04-22T17:08:18.220Z,35.50
2018-04-22T17:10:46.035Z,34.40
2018-04-22T17:13:14.252Z,33.30
2018-04-22T17:15:42.324Z,35.30
2018-04-22T17:18:10.253Z,35.00
2018-04-22T17:20:41.715Z,38.70
2018-04-22T17:23:09.178Z,40.30
2018-04-22T17:25:37.377Z,40.50
2018-04-22T17:28:04.840Z,41.10
2018-04-22T17:30:32.281Z,41.70
2018-04-22T17:32:59.724Z,43.20
2018-04-22T17:35:27.153Z,43.70
2018-04-22T17:37:55.450Z,46.80
2018-04-22T17:40:23.627Z,44.90
2018-04-22T17:42:51.067Z,42.70
2018-04-22T17:45:20.937Z,43.50
2018-04-22T17:47:49.154Z,43.50
2018-04-22T17:50:16.608Z,46.00
2018-04-22T17:52:44.650Z,48.60
2018-04-22T17:55:12.099Z,49.40
2018-04-22T17:57:39.597Z,48.30
2018-04-22T18:00:07.915Z,50.10
2018-04-22T18:02:35.343Z,50.00
2018-04-22T18:05:02.813Z,46.20
2018-04-22T18:07:30.548Z,41.20
2018-04-22T18:09:58.018Z,41.40
2018-04-22T18:12:25.582Z,41.20
2018-04-22T18:14:54.951Z,42.30
2018-04-22T18:17:22.523Z,42.30
2018-04-22T18:19:50.690Z,41.60
2018-04-22T18:22:18.096Z,41.60
2018-04-22T18:24:45.558Z,41.00
2018-04-22T18:27:13.736Z,40.20
2018-04-22T18:29:41.150Z,40.20
2018-04-22T18:32:09.310Z,41.10
2018-04-22T18:34:37.486Z,41.30
2018-04-22T18:37:04.887Z,41.30
2018-04-22T18:39:32.282Z,41.30
2018-04-22T18:41:59.707Z,41.50
2018-04-22T18:44:27.863Z,42.40
2018-04-22T18:46:56.030Z,42.60
2018-04-22T18:49:23.446Z,42.60
2018-04-22T18:51:50.864Z,42.80
2018-04-22T18:54:18.271Z,42.90
2018-04-22T18:56:45.672Z,43.10
2018-04-22T18:59:13.830Z,42.80
2018-04-22T19:01:41.251Z,42.80
2018-04-22T19:04:08.677Z,42.60
2018-04-22T19:06:36.074Z,42.70
2018-04-22T19:09:03.474Z,42.40
2018-04-22T19:11:30.892Z,42.20
2018-04-22T19:13:59.056Z,42.70
2018-04-22T19:16:26.453Z,42.60
2018-04-22T19:18:53.855Z,42.50
2018-04-22T19:21:21.263Z,42.50
2018-04-22T19:23:48.658Z,42.40
2018-04-22T19:26:16.839Z,42.70
2018-04-22T19:28:44.242Z,42.60
2018-04-22T19:31:11.657Z,42.70
2018-04-22T19:33:39.054Z,42.80
2018-04-22T19:36:06.456Z,43.10
2018-04-22T19:38:33.861Z,43.20
2018-04-22T19:41:01.270Z,43.50
2018-04-22T19:43:29.474Z,43.40
2018-04-22T19:45:56.876Z,43.40
2018-04-22T19:48:24.279Z,43.80
2018-04-22T19:50:51.682Z,44.00
2018-04-22T19:53:19.154Z,44.20
2018-04-22T19:55:46.563Z,44.80
2018-04-22T19:58:13.975Z,44.90
2018-04-22T20:00:42.153Z,45.70
2018-04-22T20:03:09.605Z,45.60
2018-04-22T20:05:37.016Z,46.10
2018-04-22T20:08:05.198Z,46.40
2018-04-22T20:10:32.650Z,46.40
2018-04-22T20:13:00.066Z,46.60
2018-04-22T20:15:28.258Z,47.10
2018-04-22T20:17:55.630Z,47.10
2018-04-22T20:20:23.157Z,47.50
2018-04-22T20:22:50.592Z,47.60
2018-04-22T20:25:17.994Z,48.00
2018-04-22T20:27:45.415Z,48.20
2018-04-22T20:30:12.898Z,48.30
2018-04-22T20:32:40.311Z,48.40
2018-04-22T20:35:08.489Z,48.60
2018-04-22T20:37:35.886Z,48.60
2018-04-22T20:40:03.290Z,48.80
2018-04-22T20:42:30.750Z,48.40
2018-04-22T20:44:58.887Z,48.60
2018-04-22T20:47:26.302Z,48.50
2018-04-22T20:49:53.703Z,48.60
2018-04-22T20:52:21.220Z,48.80
2018-04-22T20:54:48.626Z,48.90
2018-04-22T20:57:16.082Z,49.00
2018-04-22T20:59:43.519Z,49.10
2018-04-22T21:02:10.924Z,49.50
2018-04-22T21:04:38.321Z,49.30
2018-04-22T21:07:05.738Z,49.70
2018-04-22T21:09:33.155Z,49.80
2018-04-22T21:12:00.566Z,50.00
2018-04-22T21:14:27.993Z,50.30
2018-04-22T21:16:55.410Z,50.50
2018-04-22T21:19:22.866Z,50.50
2018-04-22T21:21:50.267Z,50.80
2018-04-22T21:24:18.451Z,50.20
2018-04-22T21:26:45.855Z,50.10
2018-04-22T21:29:13.264Z,50.30
2018-04-22T21:31:40.680Z,50.50
2018-04-22T21:34:08.070Z,50.00
2018-04-22T21:36:36.255Z,49.90
2018-04-22T21:39:06.358Z,49.70
2018-04-22T21:41:33.848Z,49.60
2018-04-22T21:44:01.247Z,49.70
2018-04-22T21:46:29.410Z,49.30
2018-04-22T21:48:56.814Z,49.30
2018-04-22T21:51:24.286Z,50.20
2018-04-22T21:53:51.771Z,50.00
2018-04-22T21:56:19.210Z,50.00
2018-04-22T21:58:46.623Z,49.70
2018-04-22T22:01:14.015Z,49.80
2018-04-22T22:03:41.429Z,49.80
2018-04-22T22:06:08.825Z,51.10
2018-04-22T22:08:37.006Z,52.40
2018-04-22T22:11:04.472Z,52.40
2018-04-22T22:13:31.868Z,51.90
2018-04-22T22:16:00.051Z,52.50
2018-04-22T22:18:27.451Z,52.50
2018-04-22T22:20:54.876Z,52.10
2018-04-22T22:23:22.279Z,52.70
2018-04-22T22:25:49.687Z,53.10
2018-04-22T22:28:17.856Z,54.10
2018-04-22T22:30:46.046Z,55.00
2018-04-22T22:33:13.447Z,55.00
2018-04-22T22:35:41.631Z,54.50
2018-04-22T22:38:09.095Z,54.50
2018-04-22T22:40:36.508Z,55.30
2018-04-22T22:43:03.919Z,54.40
2018-04-22T22:45:31.323Z,56.50
2018-04-22T22:47:58.726Z,56.40
2018-04-22T22:50:26.126Z,55.50
2018-04-22T22:52:53.589Z,57.00
2018-04-22T22:55:20.968Z,56.00
2018-04-22T22:57:48.423Z,56.60
2018-04-22T23:00:15.839Z,55.90
2018-04-22T23:02:43.286Z,55.40
2018-04-22T23:05:10.750Z,57.40
2018-04-22T23:07:38.183Z,57.70
2018-04-22T23:10:05.602Z,56.10
2018-04-22T23:12:33.019Z,56.60
2018-04-22T23:15:01.281Z,55.70
2018-04-22T23:17:28.719Z,55.60
2018-04-22T23:19:56.896Z,56.40
2018-04-22T23:22:25.074Z,56.80
2018-04-22T23:24:52.478Z,56.80
2018-04-22T23:27:20.083Z,57.30
2018-04-22T23:29:47.486Z,56.50
2018-04-22T23:32:15.722Z,57.70
2018-04-22T23:34:43.095Z,57.70
2018-04-22T23:37:10.503Z,58.70
2018-04-22T23:39:39.406Z,57.90
2018-04-22T23:42:06.862Z,57.90
2018-04-22T23:44:34.327Z,58.50
2018-04-22T23:47:01.743Z,58.60
2018-04-22T23:49:29.217Z,58.50
2018-04-22T23:51:56.590Z,59.20
2018-04-22T23:54:24.094Z,57.90
2018-04-22T23:56:51.502Z,59.30
2018-04-22T23:59:18.976Z,59.00
